sensor_id;sensor_type;location;lat;lon;timestamp;P1;durP1;ratioP1;P2;durP2;ratioP2
34453;SDS011;60061;52.080;5.312;2022-08-18T00:01:15;28.2;;;20.9;;
34453;SDS011;60061;52.080;5.312;2022-08-18T00:04:40;27.3;;;21.3;;
34453;SDS011;60061;52.080;5.312;2022-08-18T00:06:17;27.4;;;20.6;;
34453;SDS011;60061;52.080;5.312;2022-08-18T00:07:54;29.2;;;21.4;;
34453;SDS011;60061;52.080;5.312;2022-08-18T00:09:31;28.6;;;20.9;;
34453;SDS011;60061;52.080;5.312;2022-08-18T00:12:47;27.5;;;21.4;;
34453;SDS011;60061;52.080;5.312;2022-08-18T00:14:24;27.7;;;20.9;;
34453;SDS011;60061;52.080;5.312;2022-08-18T00:16:00;27.6;;;20.7;;
34453;SDS011;60061;52.080;5.312;2022-08-18T00:19:14;27.6;;;20.7;;
34453;SDS011;60061;52.080;5.312;2022-08-18T00:20:50;25.7;;;20.11;;
34453;SDS011;60061;52.080;5.312;2022-08-18T00:22:27;26.2;;;19.2;;
34453;SDS011;60061;52.080;5.312;2022-08-18T00:24:04;25.7;;;19.2;;
34453;SDS011;60061;52.080;5.312;2022-08-18T00:27:21;25.5;;;20.2;;
34453;SDS011;60061;52.080;5.312;2022-08-18T00:29:01;27.8;;;21.0;;
34453;SDS011;60061;52.080;5.312;2022-08-18T00:30:38;26.3;;;20.7;;
34453;SDS011;60061;52.080;5.312;2022-08-18T00:33:54;27.7;;;20.9;;
34453;SDS011;60061;52.080;5.312;2022-08-18T00:35:32;28.1;;;20.3;;
34453;SDS011;60061;52.080;5.312;2022-08-18T00:37:10;26.9;;;20.0;;
34453;SDS011;60061;52.080;5.312;2022-08-18T00:38:46;27.6;;;20.5;;
34453;SDS011;60061;52.080;5.312;2022-08-18T00:42:11;30.0;;;20.3;;
34453;SDS011;60061;52.080;5.312;2022-08-18T00:43:51;27.6;;;20.9;;
34453;SDS011;60061;52.080;5.312;2022-08-18T00:45:30;27.2;;;20.41;;
34453;SDS011;60061;52.080;5.312;2022-08-18T00:47:14;27.0;;;20.5;;
34453;SDS011;60061;52.080;5.312;2022-08-18T00:50:30;27.3;;;20.2;;
34453;SDS011;60061;52.080;5.312;2022-08-18T00:52:09;26.9;;;21.4;;
34453;SDS011;60061;52.080;5.312;2022-08-18T00:53:49;29.5;;;21.0;;
34453;SDS011;60061;52.080;5.312;2022-08-18T00:55:32;26.8;;;20.6;;
34453;SDS011;60061;52.080;5.312;2022-08-18T00:58:51;28.0;;;21.0;;
34453;SDS011;60061;52.080;5.312;2022-08-18T01:00:33;28.0;;;20.0;;
34453;SDS011;60061;52.080;5.312;2022-08-18T01:02:11;26.9;;;20.2;;
34453;SDS011;60061;52.080;5.312;2022-08-18T01:03:55;26.1;;;20.0;;
34453;SDS011;60061;52.080;5.312;2022-08-18T01:07:29;26.2;;;20.2;;
34453;SDS011;60061;52.080;5.312;2022-08-18T01:09:12;27.7;;;20.0;;
34453;SDS011;60061;52.080;5.312;2022-08-18T01:10:48;25.5;;;19.41;;
34453;SDS011;60061;52.080;5.312;2022-08-18T01:12:26;25.7;;;20.0;;
34453;SDS011;60061;52.080;5.312;2022-08-18T01:15:42;26.1;;;19.2;;
34453;SDS011;60061;52.080;5.312;2022-08-18T01:21:50;28.4;;;20.11;;
34453;SDS011;60061;52.080;5.312;2022-08-18T01:23:48;27.5;;;20.2;;
34453;SDS011;60061;52.080;5.312;2022-08-18T01:25:59;27.0;;;20.11;;
34453;SDS011;60061;52.080;5.312;2022-08-18T01:28:17;26.9;;;19.11;;
34453;SDS011;60061;52.080;5.312;2022-08-18T01:29:55;25.8;;;19.61;;
34453;SDS011;60061;52.080;5.312;2022-08-18T01:31:34;24.3;;;19.41;;
34453;SDS011;60061;52.080;5.312;2022-08-18T01:33:14;24.9;;;18.7;;
34453;SDS011;60061;52.080;5.312;2022-08-18T01:36:28;25.6;;;19.11;;
34453;SDS011;60061;52.080;5.312;2022-08-18T01:38:05;24.4;;;18.3;;
34453;SDS011;60061;52.080;5.312;2022-08-18T01:39:41;26.5;;;19.0;;
34453;SDS011;60061;52.080;5.312;2022-08-18T01:42:57;23.0;;;17.91;;
34453;SDS011;60061;52.080;5.312;2022-08-18T01:44:34;24.0;;;18.0;;
34453;SDS011;60061;52.080;5.312;2022-08-18T01:46:11;25.5;;;18.2;;
34453;SDS011;60061;52.080;5.312;2022-08-18T01:47:49;23.4;;;18.3;;
34453;SDS011;60061;52.080;5.312;2022-08-18T01:51:05;24.8;;;18.3;;
34453;SDS011;60061;52.080;5.312;2022-08-18T01:52:44;28.1;;;19.3;;
34453;SDS011;60061;52.080;5.312;2022-08-18T01:54:20;23.8;;;18.3;;
34453;SDS011;60061;52.080;5.312;2022-08-18T01:57:35;25.8;;;18.2;;
34453;SDS011;60061;52.080;5.312;2022-08-18T01:59:13;25.7;;;18.41;;
34453;SDS011;60061;52.080;5.312;2022-08-18T02:00:50;26.2;;;18.3;;
34453;SDS011;60061;52.080;5.312;2022-08-18T02:02:27;24.9;;;18.61;;
34453;SDS011;60061;52.080;5.312;2022-08-18T02:05:46;25.7;;;18.7;;
34453;SDS011;60061;52.080;5.312;2022-08-18T02:07:25;27.1;;;18.8;;
34453;SDS011;60061;52.080;5.312;2022-08-18T02:09:03;27.6;;;18.61;;
34453;SDS011;60061;52.080;5.312;2022-08-18T02:10:39;23.9;;;17.7;;
34453;SDS011;60061;52.080;5.312;2022-08-18T02:13:53;26.5;;;18.8;;
34453;SDS011;60061;52.080;5.312;2022-08-18T02:15:29;26.3;;;18.5;;
34453;SDS011;60061;52.080;5.312;2022-08-18T02:17:07;28.2;;;20.41;;
34453;SDS011;60061;52.080;5.312;2022-08-18T02:20:22;28.6;;;20.41;;
34453;SDS011;60061;52.080;5.312;2022-08-18T02:21:59;30.1;;;21.1;;
34453;SDS011;60061;52.080;5.312;2022-08-18T02:23:37;28.4;;;21.2;;
34453;SDS011;60061;52.080;5.312;2022-08-18T02:26:53;30.1;;;22.1;;
34453;SDS011;60061;52.080;5.312;2022-08-18T02:28:29;28.9;;;21.0;;
34453;SDS011;60061;52.080;5.312;2022-08-18T02:30:07;31.0;;;22.0;;
34453;SDS011;60061;52.080;5.312;2022-08-18T02:31:48;29.4;;;21.8;;
34453;SDS011;60061;52.080;5.312;2022-08-18T02:35:02;27.6;;;21.1;;
34453;SDS011;60061;52.080;5.312;2022-08-18T02:36:40;28.6;;;21.2;;
34453;SDS011;60061;52.080;5.312;2022-08-18T02:38:16;27.2;;;19.7;;
34453;SDS011;60061;52.080;5.312;2022-08-18T02:41:28;25.9;;;19.5;;
34453;SDS011;60061;52.080;5.312;2022-08-18T02:43:05;25.6;;;19.41;;
34453;SDS011;60061;52.080;5.312;2022-08-18T02:44:42;26.3;;;19.61;;
34453;SDS011;60061;52.080;5.312;2022-08-18T02:46:19;28.2;;;20.0;;
34453;SDS011;60061;52.080;5.312;2022-08-18T02:49:32;28.2;;;20.0;;
34453;SDS011;60061;52.080;5.312;2022-08-18T02:51:10;29.4;;;20.3;;
34453;SDS011;60061;52.080;5.312;2022-08-18T02:52:49;27.5;;;19.5;;
34453;SDS011;60061;52.080;5.312;2022-08-18T02:56:04;24.7;;;18.61;;
34453;SDS011;60061;52.080;5.312;2022-08-18T02:57:43;23.6;;;18.41;;
34453;SDS011;60061;52.080;5.312;2022-08-18T02:59:24;23.2;;;17.91;;
34453;SDS011;60061;52.080;5.312;2022-08-18T03:01:02;24.8;;;18.91;;
34453;SDS011;60061;52.080;5.312;2022-08-18T03:04:15;24.9;;;19.11;;
34453;SDS011;60061;52.080;5.312;2022-08-18T03:05:56;24.0;;;18.61;;
34453;SDS011;60061;52.080;5.312;2022-08-18T03:07:32;23.2;;;17.91;;
34453;SDS011;60061;52.080;5.312;2022-08-18T03:10:49;25.5;;;18.8;;
34453;SDS011;60061;52.080;5.312;2022-08-18T03:12:27;24.3;;;17.61;;
34453;SDS011;60061;52.080;5.312;2022-08-18T03:14:04;24.8;;;18.41;;
34453;SDS011;60061;52.080;5.312;2022-08-18T03:15:41;23.5;;;17.7;;
34453;SDS011;60061;52.080;5.312;2022-08-18T03:18:53;24.5;;;18.61;;
34453;SDS011;60061;52.080;5.312;2022-08-18T03:20:30;23.4;;;17.91;;
34453;SDS011;60061;52.080;5.312;2022-08-18T03:22:07;23.9;;;18.41;;
34453;SDS011;60061;52.080;5.312;2022-08-18T03:25:20;23.7;;;17.91;;
34453;SDS011;60061;52.080;5.312;2022-08-18T03:26:56;22.5;;;17.11;;
34453;SDS011;60061;52.080;5.312;2022-08-18T03:28:33;19.5;;;15.6;;
34453;SDS011;60061;52.080;5.312;2022-08-18T03:30:10;18.2;;;15.0;;
34453;SDS011;60061;52.080;5.312;2022-08-18T03:33:25;20.41;;;15.0;;
34453;SDS011;60061;52.080;5.312;2022-08-18T03:35:01;21.1;;;16.0;;
34453;SDS011;60061;52.080;5.312;2022-08-18T03:36:38;21.7;;;16.5;;
34453;SDS011;60061;52.080;5.312;2022-08-18T03:39:52;21.5;;;16.0;;
34453;SDS011;60061;52.080;5.312;2022-08-18T03:41:28;24.2;;;16.9;;
34453;SDS011;60061;52.080;5.312;2022-08-18T03:43:05;21.0;;;16.11;;
34453;SDS011;60061;52.080;5.312;2022-08-18T03:46:18;21.1;;;15.8;;
34453;SDS011;60061;52.080;5.312;2022-08-18T03:47:56;20.8;;;16.0;;
34453;SDS011;60061;52.080;5.312;2022-08-18T03:49:32;23.1;;;17.0;;
34453;SDS011;60061;52.080;5.312;2022-08-18T03:51:12;23.1;;;17.2;;
34453;SDS011;60061;52.080;5.312;2022-08-18T03:54:30;21.8;;;16.9;;
34453;SDS011;60061;52.080;5.312;2022-08-18T03:56:10;23.5;;;17.61;;
34453;SDS011;60061;52.080;5.312;2022-08-18T03:57:58;25.2;;;17.0;;
34453;SDS011;60061;52.080;5.312;2022-08-18T03:59:35;23.0;;;17.2;;
34453;SDS011;60061;52.080;5.312;2022-08-18T04:02:54;22.6;;;17.0;;
34453;SDS011;60061;52.080;5.312;2022-08-18T04:04:32;22.9;;;16.9;;
34453;SDS011;60061;52.080;5.312;2022-08-18T04:06:13;21.4;;;16.11;;
34453;SDS011;60061;52.080;5.312;2022-08-18T04:07:50;20.11;;;16.11;;
34453;SDS011;60061;52.080;5.312;2022-08-18T04:11:05;21.9;;;15.3;;
34453;SDS011;60061;52.080;5.312;2022-08-18T04:12:42;18.7;;;14.5;;
34453;SDS011;60061;52.080;5.312;2022-08-18T04:14:18;19.8;;;14.5;;
34453;SDS011;60061;52.080;5.312;2022-08-18T04:17:35;21.2;;;15.0;;
34453;SDS011;60061;52.080;5.312;2022-08-18T04:19:13;19.91;;;15.3;;
34453;SDS011;60061;52.080;5.312;2022-08-18T04:20:51;20.9;;;15.1;;
34453;SDS011;60061;52.080;5.312;2022-08-18T04:22:28;21.4;;;15.3;;
34453;SDS011;60061;52.080;5.312;2022-08-18T04:25:44;22.5;;;15.5;;
34453;SDS011;60061;52.080;5.312;2022-08-18T04:27:20;21.8;;;16.4;;
34453;SDS011;60061;52.080;5.312;2022-08-18T04:29:00;20.9;;;16.11;;
34453;SDS011;60061;52.080;5.312;2022-08-18T04:32:14;24.4;;;17.2;;
34453;SDS011;60061;52.080;5.312;2022-08-18T04:33:50;23.4;;;17.2;;
34453;SDS011;60061;52.080;5.312;2022-08-18T04:35:29;23.3;;;16.7;;
34453;SDS011;60061;52.080;5.312;2022-08-18T04:37:07;22.9;;;17.2;;
34453;SDS011;60061;52.080;5.312;2022-08-18T04:40:20;24.0;;;17.7;;
34453;SDS011;60061;52.080;5.312;2022-08-18T04:41:58;25.6;;;17.61;;
34453;SDS011;60061;52.080;5.312;2022-08-18T04:43:34;23.3;;;16.61;;
34453;SDS011;60061;52.080;5.312;2022-08-18T04:46:51;22.0;;;16.5;;
34453;SDS011;60061;52.080;5.312;2022-08-18T04:48:32;21.4;;;16.2;;
34453;SDS011;60061;52.080;5.312;2022-08-18T04:50:11;21.3;;;16.3;;
34453;SDS011;60061;52.080;5.312;2022-08-18T04:53:44;21.3;;;16.3;;
34453;SDS011;60061;52.080;5.312;2022-08-18T04:55:21;25.1;;;17.0;;
34453;SDS011;60061;52.080;5.312;2022-08-18T04:56:57;20.8;;;16.2;;
34453;SDS011;60061;52.080;5.312;2022-08-18T04:58:34;24.3;;;17.5;;
34453;SDS011;60061;52.080;5.312;2022-08-18T05:00:11;25.2;;;17.8;;
34453;SDS011;60061;52.080;5.312;2022-08-18T05:03:26;32.0;;;21.2;;
34453;SDS011;60061;52.080;5.312;2022-08-18T05:05:03;27.7;;;18.7;;
34453;SDS011;60061;52.080;5.312;2022-08-18T05:06:42;23.9;;;17.41;;
34453;SDS011;60061;52.080;5.312;2022-08-18T05:09:57;19.7;;;15.4;;
34453;SDS011;60061;52.080;5.312;2022-08-18T05:11:34;22.4;;;15.8;;
34453;SDS011;60061;52.080;5.312;2022-08-18T05:13:15;20.7;;;15.1;;
34453;SDS011;60061;52.080;5.312;2022-08-18T05:14:52;21.2;;;15.3;;
34453;SDS011;60061;52.080;5.312;2022-08-18T05:18:11;21.3;;;15.1;;
34453;SDS011;60061;52.080;5.312;2022-08-18T05:19:48;20.2;;;14.9;;
34453;SDS011;60061;52.080;5.312;2022-08-18T05:21:25;23.2;;;15.5;;
34453;SDS011;60061;52.080;5.312;2022-08-18T05:24:38;20.0;;;14.8;;
34453;SDS011;60061;52.080;5.312;2022-08-18T05:26:15;19.91;;;14.4;;
34453;SDS011;60061;52.080;5.312;2022-08-18T05:27:52;21.6;;;15.1;;
34453;SDS011;60061;52.080;5.312;2022-08-18T05:29:33;22.3;;;15.5;;
34453;SDS011;60061;52.080;5.312;2022-08-18T05:32:50;27.4;;;18.41;;
34453;SDS011;60061;52.080;5.312;2022-08-18T05:34:26;24.3;;;17.91;;
34453;SDS011;60061;52.080;5.312;2022-08-18T05:36:03;22.5;;;15.8;;
34453;SDS011;60061;52.080;5.312;2022-08-18T05:37:50;25.5;;;17.5;;
34453;SDS011;60061;52.080;5.312;2022-08-18T05:41:33;25.5;;;17.7;;
34453;SDS011;60061;52.080;5.312;2022-08-18T05:43:12;25.6;;;18.0;;
34453;SDS011;60061;52.080;5.312;2022-08-18T05:44:52;30.9;;;20.7;;
34453;SDS011;60061;52.080;5.312;2022-08-18T05:46:31;30.5;;;20.7;;
34453;SDS011;60061;52.080;5.312;2022-08-18T05:48:24;31.3;;;20.6;;
34453;SDS011;60061;52.080;5.312;2022-08-18T05:51:44;29.9;;;20.11;;
34453;SDS011;60061;52.080;5.312;2022-08-18T05:56:46;31.4;;;20.2;;
34453;SDS011;60061;52.080;5.312;2022-08-18T05:58:29;30.0;;;18.61;;
34453;SDS011;60061;52.080;5.312;2022-08-18T06:00:12;33.8;;;19.91;;
34453;SDS011;60061;52.080;5.312;2022-08-18T06:01:54;33.0;;;21.1;;
34453;SDS011;60061;52.080;5.312;2022-08-18T06:03:39;34.31;;;20.8;;
34453;SDS011;60061;52.080;5.312;2022-08-18T06:05:23;32.8;;;22.0;;
34453;SDS011;60061;52.080;5.312;2022-08-18T06:07:04;36.31;;;22.9;;
34453;SDS011;60061;52.080;5.312;2022-08-18T06:10:45;34.5;;;21.8;;
34453;SDS011;60061;52.080;5.312;2022-08-18T06:12:26;33.1;;;21.6;;
34453;SDS011;60061;52.080;5.312;2022-08-18T06:14:08;35.71;;;22.1;;
34453;SDS011;60061;52.080;5.312;2022-08-18T06:15:46;35.21;;;22.6;;
34453;SDS011;60061;52.080;5.312;2022-08-18T06:17:37;33.9;;;20.41;;
34453;SDS011;60061;52.080;5.312;2022-08-18T06:19:48;30.8;;;19.8;;
34453;SDS011;60061;52.080;5.312;2022-08-18T06:23:24;30.4;;;20.6;;
34453;SDS011;60061;52.080;5.312;2022-08-18T06:25:12;32.3;;;20.7;;
34453;SDS011;60061;52.080;5.312;2022-08-18T06:26:54;31.1;;;20.5;;
34453;SDS011;60061;52.080;5.312;2022-08-18T06:28:39;30.5;;;19.2;;
34453;SDS011;60061;52.080;5.312;2022-08-18T06:30:39;29.3;;;19.61;;
34453;SDS011;60061;52.080;5.312;2022-08-18T06:32:28;29.3;;;19.2;;
34453;SDS011;60061;52.080;5.312;2022-08-18T06:34:21;30.9;;;19.91;;
34453;SDS011;60061;52.080;5.312;2022-08-18T06:39:01;28.8;;;19.41;;
34453;SDS011;60061;52.080;5.312;2022-08-18T06:40:46;32.5;;;20.0;;
34453;SDS011;60061;52.080;5.312;2022-08-18T06:44:06;28.9;;;19.3;;
34453;SDS011;60061;52.080;5.312;2022-08-18T06:45:47;31.3;;;20.2;;
34453;SDS011;60061;52.080;5.312;2022-08-18T06:47:29;30.7;;;19.8;;
34453;SDS011;60061;52.080;5.312;2022-08-18T06:49:20;27.0;;;18.41;;
34453;SDS011;60061;52.080;5.312;2022-08-18T06:51:10;24.9;;;18.11;;
34453;SDS011;60061;52.080;5.312;2022-08-18T06:54:31;29.7;;;19.11;;
34453;SDS011;60061;52.080;5.312;2022-08-18T06:56:18;25.9;;;17.41;;
34453;SDS011;60061;52.080;5.312;2022-08-18T06:57:59;26.7;;;17.5;;
34453;SDS011;60061;52.080;5.312;2022-08-18T06:59:38;23.0;;;15.7;;
34453;SDS011;60061;52.080;5.312;2022-08-18T07:02:54;20.7;;;15.9;;
34453;SDS011;60061;52.080;5.312;2022-08-18T07:04:37;23.6;;;16.4;;
34453;SDS011;60061;52.080;5.312;2022-08-18T07:06:26;20.11;;;15.0;;
34453;SDS011;60061;52.080;5.312;2022-08-18T07:08:10;20.11;;;15.4;;
34453;SDS011;60061;52.080;5.312;2022-08-18T07:09:50;21.9;;;15.2;;
34453;SDS011;60061;52.080;5.312;2022-08-18T07:13:24;21.8;;;14.3;;
34453;SDS011;60061;52.080;5.312;2022-08-18T07:15:03;19.61;;;14.3;;
34453;SDS011;60061;52.080;5.312;2022-08-18T07:16:41;19.0;;;13.9;;
34453;SDS011;60061;52.080;5.312;2022-08-18T07:18:22;18.0;;;14.1;;
34453;SDS011;60061;52.080;5.312;2022-08-18T07:21:44;16.0;;;11.9;;
34453;SDS011;60061;52.080;5.312;2022-08-18T07:23:24;15.7;;;11.7;;
34453;SDS011;60061;52.080;5.312;2022-08-18T07:25:03;16.11;;;11.7;;
34453;SDS011;60061;52.080;5.312;2022-08-18T07:26:57;13.6;;;11.9;;
34453;SDS011;60061;52.080;5.312;2022-08-18T07:30:27;14.0;;;11.2;;
34453;SDS011;60061;52.080;5.312;2022-08-18T07:32:13;13.4;;;10.4;;
34453;SDS011;60061;52.080;5.312;2022-08-18T07:33:58;14.3;;;10.8;;
34453;SDS011;60061;52.080;5.312;2022-08-18T07:35:42;14.2;;;10.6;;
34453;SDS011;60061;52.080;5.312;2022-08-18T07:37:23;14.7;;;10.4;;
34453;SDS011;60061;52.080;5.312;2022-08-18T07:40:56;12.9;;;9.1;;
34453;SDS011;60061;52.080;5.312;2022-08-18T07:42:41;14.1;;;9.81;;
34453;SDS011;60061;52.080;5.312;2022-08-18T07:44:24;11.0;;;9.21;;
34453;SDS011;60061;52.080;5.312;2022-08-18T07:46:18;12.3;;;9.0;;
34453;SDS011;60061;52.080;5.312;2022-08-18T07:48:09;12.1;;;9.4;;
34453;SDS011;60061;52.080;5.312;2022-08-18T07:49:49;11.1;;;8.2;;
34453;SDS011;60061;52.080;5.312;2022-08-18T07:53:20;11.9;;;8.6;;
34453;SDS011;60061;52.080;5.312;2022-08-18T07:55:10;10.7;;;8.0;;
34453;SDS011;60061;52.080;5.312;2022-08-18T07:57:02;12.5;;;8.9;;
34453;SDS011;60061;52.080;5.312;2022-08-18T07:58:50;12.2;;;8.9;;
34453;SDS011;60061;52.080;5.312;2022-08-18T08:00:33;10.6;;;8.71;;
34453;SDS011;60061;52.080;5.312;2022-08-18T08:02:24;10.6;;;8.5;;
34453;SDS011;60061;52.080;5.312;2022-08-18T08:05:53;11.3;;;8.4;;
34453;SDS011;60061;52.080;5.312;2022-08-18T08:07:44;9.9;;;8.2;;
34453;SDS011;60061;52.080;5.312;2022-08-18T08:09:35;12.8;;;9.5;;
34453;SDS011;60061;52.080;5.312;2022-08-18T08:11:24;10.7;;;8.2;;
34453;SDS011;60061;52.080;5.312;2022-08-18T08:13:22;10.1;;;8.5;;
34453;SDS011;60061;52.080;5.312;2022-08-18T08:15:11;12.0;;;8.2;;
34453;SDS011;60061;52.080;5.312;2022-08-18T08:16:59;10.5;;;8.0;;
34453;SDS011;60061;52.080;5.312;2022-08-18T08:20:35;10.21;;;7.8;;
34453;SDS011;60061;52.080;5.312;2022-08-18T08:22:18;9.21;;;7.9;;
34453;SDS011;60061;52.080;5.312;2022-08-18T08:24:08;11.7;;;8.9;;
34453;SDS011;60061;52.080;5.312;2022-08-18T08:25:59;10.5;;;8.6;;
34453;SDS011;60061;52.080;5.312;2022-08-18T08:28:03;11.3;;;8.31;;
34453;SDS011;60061;52.080;5.312;2022-08-18T08:29:53;11.7;;;8.81;;
34453;SDS011;60061;52.080;5.312;2022-08-18T08:31:43;12.5;;;9.0;;
34453;SDS011;60061;52.080;5.312;2022-08-18T08:35:13;10.7;;;9.4;;
34453;SDS011;60061;52.080;5.312;2022-08-18T08:36:56;9.9;;;8.81;;
34453;SDS011;60061;52.080;5.312;2022-08-18T08:38:39;10.4;;;9.1;;
34453;SDS011;60061;52.080;5.312;2022-08-18T08:40:21;9.71;;;8.5;;
34453;SDS011;60061;52.080;5.312;2022-08-18T08:42:05;10.0;;;8.6;;
34453;SDS011;60061;52.080;5.312;2022-08-18T08:45:36;8.9;;;7.9;;
34453;SDS011;60061;52.080;5.312;2022-08-18T08:47:17;9.71;;;7.0;;
34453;SDS011;60061;52.080;5.312;2022-08-18T08:49:00;7.8;;;7.0;;
34453;SDS011;60061;52.080;5.312;2022-08-18T08:50:54;7.8;;;7.0;;
34453;SDS011;60061;52.080;5.312;2022-08-18T08:52:37;7.7;;;6.6;;
34453;SDS011;60061;52.080;5.312;2022-08-18T08:56:05;7.2;;;6.5;;
34453;SDS011;60061;52.080;5.312;2022-08-18T08:57:47;7.3;;;6.6;;
34453;SDS011;60061;52.080;5.312;2022-08-18T08:59:28;8.4;;;7.1;;
34453;SDS011;60061;52.080;5.312;2022-08-18T09:01:04;7.6;;;6.9;;
34453;SDS011;60061;52.080;5.312;2022-08-18T09:03:00;6.7;;;6.0;;
34453;SDS011;60061;52.080;5.312;2022-08-18T09:04:54;7.1;;;6.0;;
34453;SDS011;60061;52.080;5.312;2022-08-18T09:08:50;7.7;;;6.4;;
34453;SDS011;60061;52.080;5.312;2022-08-18T09:10:54;6.2;;;5.6;;
34453;SDS011;60061;52.080;5.312;2022-08-18T09:14:14;6.2;;;5.6;;
34453;SDS011;60061;52.080;5.312;2022-08-18T09:17:49;7.6;;;5.8;;
34453;SDS011;60061;52.080;5.312;2022-08-18T09:20:09;6.8;;;6.2;;
34453;SDS011;60061;52.080;5.312;2022-08-18T09:22:14;7.1;;;5.9;;
34453;SDS011;60061;52.080;5.312;2022-08-18T09:24:05;6.8;;;6.1;;
34453;SDS011;60061;52.080;5.312;2022-08-18T09:25:51;6.9;;;6.2;;
34453;SDS011;60061;52.080;5.312;2022-08-18T09:29:24;6.5;;;5.5;;
34453;SDS011;60061;52.080;5.312;2022-08-18T09:31:20;7.2;;;6.1;;
34453;SDS011;60061;52.080;5.312;2022-08-18T09:33:01;7.4;;;6.6;;
34453;SDS011;60061;52.080;5.312;2022-08-18T09:35:18;6.9;;;6.2;;
34453;SDS011;60061;52.080;5.312;2022-08-18T09:37:15;7.2;;;6.6;;
34453;SDS011;60061;52.080;5.312;2022-08-18T09:41:50;7.9;;;6.7;;
34453;SDS011;60061;52.080;5.312;2022-08-18T09:43:32;8.2;;;7.3;;
34453;SDS011;60061;52.080;5.312;2022-08-18T09:45:39;7.2;;;6.5;;
34453;SDS011;60061;52.080;5.312;2022-08-18T09:48:20;8.4;;;6.2;;
34453;SDS011;60061;52.080;5.312;2022-08-18T09:50:31;7.5;;;6.7;;
34453;SDS011;60061;52.080;5.312;2022-08-18T09:52:46;7.3;;;6.3;;
34453;SDS011;60061;52.080;5.312;2022-08-18T09:54:24;6.6;;;6.0;;
34453;SDS011;60061;52.080;5.312;2022-08-18T09:56:02;7.1;;;6.4;;
34453;SDS011;60061;52.080;5.312;2022-08-18T09:57:40;6.4;;;4.7;;
34453;SDS011;60061;52.080;5.312;2022-08-18T09:59:30;5.4;;;4.91;;
34453;SDS011;60061;52.080;5.312;2022-08-18T10:01:35;5.0;;;4.61;;
34453;SDS011;60061;52.080;5.312;2022-08-18T10:05:21;6.0;;;5.0;;
34453;SDS011;60061;52.080;5.312;2022-08-18T10:07:20;5.7;;;5.2;;
34453;SDS011;60061;52.080;5.312;2022-08-18T10:09:14;8.1;;;5.6;;
34453;SDS011;60061;52.080;5.312;2022-08-18T10:11:04;5.4;;;4.91;;
34453;SDS011;60061;52.080;5.312;2022-08-18T10:13:03;5.8;;;4.8;;
34453;SDS011;60061;52.080;5.312;2022-08-18T10:15:01;4.91;;;4.5;;
34453;SDS011;60061;52.080;5.312;2022-08-18T10:17:32;5.11;;;4.1;;
34453;SDS011;60061;52.080;5.312;2022-08-18T10:19:25;5.9;;;4.3;;
34453;SDS011;60061;52.080;5.312;2022-08-18T10:21:17;4.61;;;4.2;;
34453;SDS011;60061;52.080;5.312;2022-08-18T10:22:55;4.91;;;4.41;;
34453;SDS011;60061;52.080;5.312;2022-08-18T10:24:33;5.9;;;5.0;;
34453;SDS011;60061;52.080;5.312;2022-08-18T10:29:55;5.11;;;4.61;;
34453;SDS011;60061;52.080;5.312;2022-08-18T10:32:37;5.7;;;5.11;;
34453;SDS011;60061;52.080;5.312;2022-08-18T10:34:35;4.91;;;4.3;;
34453;SDS011;60061;52.080;5.312;2022-08-18T10:36:27;4.61;;;4.2;;
34453;SDS011;60061;52.080;5.312;2022-08-18T10:38:13;8.0;;;4.8;;
34453;SDS011;60061;52.080;5.312;2022-08-18T10:39:58;5.7;;;4.0;;
34453;SDS011;60061;52.080;5.312;2022-08-18T10:41:43;4.41;;;4.0;;
34453;SDS011;60061;52.080;5.312;2022-08-18T10:43:33;3.9;;;3.6;;
34453;SDS011;60061;52.080;5.312;2022-08-18T10:46:59;5.4;;;4.3;;
34453;SDS011;60061;52.080;5.312;2022-08-18T10:48:38;4.61;;;4.2;;
34453;SDS011;60061;52.080;5.312;2022-08-18T10:50:17;4.2;;;3.8;;
34453;SDS011;60061;52.080;5.312;2022-08-18T10:52:13;5.2;;;4.41;;
34453;SDS011;60061;52.080;5.312;2022-08-18T10:55:27;5.6;;;4.1;;
34453;SDS011;60061;52.080;5.312;2022-08-18T10:57:39;6.3;;;4.1;;
34453;SDS011;60061;52.080;5.312;2022-08-18T11:00:50;4.7;;;4.2;;
34453;SDS011;60061;52.080;5.312;2022-08-18T11:02:48;5.9;;;4.0;;
34453;SDS011;60061;52.080;5.312;2022-08-18T11:04:46;5.11;;;4.41;;
34453;SDS011;60061;52.080;5.312;2022-08-18T11:06:25;5.3;;;4.7;;
34453;SDS011;60061;52.080;5.312;2022-08-18T11:09:42;5.8;;;5.0;;
34453;SDS011;60061;52.080;5.312;2022-08-18T11:11:19;5.5;;;4.91;;
34453;SDS011;60061;52.080;5.312;2022-08-18T11:13:02;7.6;;;5.0;;
34453;SDS011;60061;52.080;5.312;2022-08-18T11:14:56;4.91;;;4.41;;
34453;SDS011;60061;52.080;5.312;2022-08-18T11:16:52;5.4;;;4.5;;
34453;SDS011;60061;52.080;5.312;2022-08-18T11:20:21;5.0;;;4.61;;
34453;SDS011;60061;52.080;5.312;2022-08-18T11:22:02;5.0;;;4.5;;
34453;SDS011;60061;52.080;5.312;2022-08-18T11:23:39;5.8;;;4.5;;
34453;SDS011;60061;52.080;5.312;2022-08-18T11:25:18;5.11;;;4.61;;
34453;SDS011;60061;52.080;5.312;2022-08-18T11:28:54;5.5;;;4.7;;
34453;SDS011;60061;52.080;5.312;2022-08-18T11:30:31;5.0;;;4.5;;
34453;SDS011;60061;52.080;5.312;2022-08-18T11:32:17;4.41;;;4.0;;
34453;SDS011;60061;52.080;5.312;2022-08-18T11:33:59;4.5;;;4.1;;
34453;SDS011;60061;52.080;5.312;2022-08-18T11:35:43;4.8;;;4.41;;
34453;SDS011;60061;52.080;5.312;2022-08-18T11:39:08;5.2;;;4.5;;
34453;SDS011;60061;52.080;5.312;2022-08-18T11:40:48;7.1;;;4.5;;
34453;SDS011;60061;52.080;5.312;2022-08-18T11:42:29;5.0;;;4.61;;
34453;SDS011;60061;52.080;5.312;2022-08-18T11:44:11;5.8;;;4.61;;
34453;SDS011;60061;52.080;5.312;2022-08-18T11:45:59;5.5;;;4.2;;
34453;SDS011;60061;52.080;5.312;2022-08-18T11:50:12;5.2;;;4.7;;
34453;SDS011;60061;52.080;5.312;2022-08-18T11:53:36;5.7;;;4.7;;
34453;SDS011;60061;52.080;5.312;2022-08-18T11:55:19;5.11;;;4.61;;
34453;SDS011;60061;52.080;5.312;2022-08-18T11:57:37;4.7;;;4.2;;
34453;SDS011;60061;52.080;5.312;2022-08-18T11:59:41;4.61;;;4.2;;
34453;SDS011;60061;52.080;5.312;2022-08-18T12:01:34;5.7;;;5.11;;
34453;SDS011;60061;52.080;5.312;2022-08-18T12:03:16;6.0;;;4.41;;
34453;SDS011;60061;52.080;5.312;2022-08-18T12:05:02;5.0;;;4.5;;
34453;SDS011;60061;52.080;5.312;2022-08-18T12:08:30;4.7;;;4.3;;
34453;SDS011;60061;52.080;5.312;2022-08-18T12:10:15;4.7;;;4.2;;
34453;SDS011;60061;52.080;5.312;2022-08-18T12:12:01;6.2;;;4.2;;
34453;SDS011;60061;52.080;5.312;2022-08-18T12:13:42;4.7;;;4.0;;
34453;SDS011;60061;52.080;5.312;2022-08-18T12:15:23;4.3;;;3.9;;
34453;SDS011;60061;52.080;5.312;2022-08-18T12:18:43;5.6;;;4.5;;
34453;SDS011;60061;52.080;5.312;2022-08-18T12:20:20;6.2;;;4.1;;
34453;SDS011;60061;52.080;5.312;2022-08-18T12:21:58;5.5;;;4.3;;
34453;SDS011;60061;52.080;5.312;2022-08-18T12:25:16;4.91;;;4.41;;
34453;SDS011;60061;52.080;5.312;2022-08-18T12:26:55;4.61;;;4.1;;
34453;SDS011;60061;52.080;5.312;2022-08-18T12:28:33;4.0;;;3.7;;
34453;SDS011;60061;52.080;5.312;2022-08-18T12:30:10;4.1;;;3.7;;
34453;SDS011;60061;52.080;5.312;2022-08-18T12:33:28;4.3;;;3.9;;
34453;SDS011;60061;52.080;5.312;2022-08-18T12:35:04;3.7;;;3.1;;
34453;SDS011;60061;52.080;5.312;2022-08-18T12:36:43;4.1;;;3.4;;
34453;SDS011;60061;52.080;5.312;2022-08-18T12:38:19;3.9;;;3.5;;
34453;SDS011;60061;52.080;5.312;2022-08-18T12:41:33;4.2;;;3.4;;
34453;SDS011;60061;52.080;5.312;2022-08-18T12:43:10;3.8;;;3.4;;
34453;SDS011;60061;52.080;5.312;2022-08-18T12:44:47;3.9;;;3.5;;
34453;SDS011;60061;52.080;5.312;2022-08-18T12:48:01;3.5;;;3.2;;
34453;SDS011;60061;52.080;5.312;2022-08-18T12:49:38;3.7;;;3.0;;
34453;SDS011;60061;52.080;5.312;2022-08-18T12:51:15;3.4;;;3.1;;
34453;SDS011;60061;52.080;5.312;2022-08-18T12:54:28;2.7;;;2.5;;
34453;SDS011;60061;52.080;5.312;2022-08-18T12:56:04;4.0;;;2.8;;
34453;SDS011;60061;52.080;5.312;2022-08-18T12:57:43;3.2;;;2.6;;
34453;SDS011;60061;52.080;5.312;2022-08-18T12:59:20;3.0;;;2.7;;
34453;SDS011;60061;52.080;5.312;2022-08-18T13:02:32;2.7;;;2.5;;